createdAt,value
2023-01-13T00:27:51.231Z,60.75
2023-01-13T00:28:52.878Z,64.13
2023-01-13T00:29:52.222Z,62.52
2023-01-13T00:30:51.238Z,64.45
2023-01-13T00:31:54.878Z,49.47
2023-01-13T00:32:51.201Z,57.20
2023-01-13T00:33:51.886Z,63.33
2023-01-13T00:34:52.897Z,65.90
2023-01-13T00:35:51.947Z,67.03
2023-01-13T00:36:54.963Z,68.80
2023-01-13T00:37:52.242Z,58.65
2023-01-13T00:38:52.236Z,61.87
2023-01-13T00:39:52.238Z,69.13
2023-01-13T00:40:52.226Z,65.26
2023-01-13T00:41:52.211Z,59.94
2023-01-13T00:42:52.214Z,69.29
2023-01-13T00:43:52.196Z,60.42
2023-01-13T00:44:52.186Z,60.75
2023-01-13T00:45:52.190Z,70.25
2023-01-13T00:46:52.229Z,63.65
2023-01-13T00:47:52.196Z,67.35
2023-01-13T00:48:52.163Z,67.51
2023-01-13T00:49:52.160Z,66.06
2023-01-13T00:50:52.131Z,62.20
2023-01-13T00:51:52.139Z,59.14
2023-01-13T00:52:52.127Z,53.82
2023-01-13T00:53:52.887Z,67.51
2023-01-13T00:54:52.101Z,61.87
2023-01-13T00:55:52.092Z,59.14
2023-01-13T00:56:52.102Z,61.87
2023-01-13T00:57:52.087Z,61.87
2023-01-13T00:58:52.085Z,68.00
2023-01-13T00:59:52.079Z,65.42
2023-01-13T01:00:52.223Z,63.49
2023-01-13T01:01:52.211Z,56.56
2023-01-13T01:02:52.057Z,62.68
2023-01-13T01:03:52.038Z,62.36
2023-01-13T01:04:52.064Z,59.62
2023-01-13T01:05:52.006Z,68.00
2023-01-13T01:06:52.014Z,69.29
2023-01-13T01:07:51.992Z,56.88
2023-01-13T01:08:51.992Z,59.78
2023-01-13T01:09:51.975Z,60.59
2023-01-13T01:10:51.976Z,61.23
2023-01-13T01:11:51.970Z,67.19
2023-01-13T01:12:51.956Z,68.16
2023-01-13T01:13:51.954Z,64.78
2023-01-13T01:14:51.941Z,68.96
2023-01-13T01:15:51.947Z,63.81
2023-01-13T01:16:51.916Z,65.90
2023-01-13T01:17:51.910Z,55.75
2023-01-13T01:18:51.920Z,69.29
2023-01-13T01:19:51.895Z,65.90
2023-01-13T01:20:51.890Z,61.55
2023-01-13T01:21:51.878Z,72.99
2023-01-13T01:22:51.879Z,70.25
2023-01-13T01:23:51.893Z,56.56
2023-01-13T01:24:51.851Z,68.48
2023-01-13T01:25:52.847Z,57.52
2023-01-13T01:26:51.833Z,63.65
2023-01-13T01:27:51.836Z,65.90
2023-01-13T01:28:51.839Z,43.99
2023-01-13T01:29:51.815Z,64.45
2023-01-13T01:30:51.808Z,68.00
2023-01-13T01:31:51.812Z,44.15
2023-01-13T01:32:51.795Z,48.66
2023-01-13T01:33:51.778Z,55.91
2023-01-13T01:34:51.778Z,46.73
2023-01-13T01:35:51.765Z,57.85
2023-01-13T01:36:51.781Z,63.33
2023-01-13T01:37:51.752Z,65.74
2023-01-13T01:38:51.743Z,62.04
2023-01-13T01:39:51.727Z,60.75
2023-01-13T01:40:51.717Z,57.36
2023-01-13T01:41:51.734Z,70.90
2023-01-13T01:42:51.760Z,61.87
2023-01-13T01:43:51.710Z,62.68
2023-01-13T01:44:51.688Z,64.94
2023-01-13T01:45:51.692Z,63.16
2023-01-13T01:46:51.776Z,61.23
2023-01-13T01:47:51.671Z,67.84
2023-01-13T01:48:51.655Z,58.33
2023-01-13T01:49:51.651Z,62.52
2023-01-13T01:50:51.647Z,67.03
2023-01-13T01:51:51.660Z,69.13
2023-01-13T01:52:51.640Z,61.23
2023-01-13T01:53:51.613Z,59.14
2023-01-13T01:54:51.615Z,63.49
2023-01-13T01:55:51.598Z,63.65
2023-01-13T01:56:51.593Z,49.95
2023-01-13T01:57:51.591Z,64.45
2023-01-13T01:58:51.568Z,58.81
2023-01-13T01:59:52.572Z,60.10
2023-01-13T02:00:51.690Z,72.19
2023-01-13T02:01:51.683Z,67.19
2023-01-13T02:02:52.507Z,58.33
2023-01-13T02:03:51.537Z,56.56
2023-01-13T02:04:51.554Z,62.20
2023-01-13T02:05:51.524Z,63.00
2023-01-13T02:06:52.421Z,69.45
2023-01-13T02:07:51.503Z,66.06
2023-01-13T02:08:51.499Z,61.55
2023-01-13T02:09:51.507Z,58.49
2023-01-13T02:10:51.479Z,62.36
2023-01-13T02:11:51.475Z,63.97
2023-01-13T02:12:51.468Z,71.87
2023-01-13T02:13:51.504Z,62.36
2023-01-13T02:14:51.451Z,65.42
2023-01-13T02:15:52.018Z,76.22
2023-01-13T02:16:51.444Z,63.49
2023-01-13T02:17:51.426Z,61.39
2023-01-13T02:18:51.440Z,52.69
2023-01-13T02:19:51.410Z,63.16
2023-01-13T02:20:53.012Z,61.55
2023-01-13T02:21:51.400Z,66.39
2023-01-13T02:22:51.986Z,69.93
2023-01-13T02:23:51.385Z,57.04
2023-01-13T02:24:51.374Z,68.48
2023-01-13T02:25:51.379Z,59.62
2023-01-13T02:26:51.373Z,55.59
2023-01-13T02:27:51.350Z,62.04
2023-01-13T02:28:51.349Z,47.37
2023-01-13T02:29:51.345Z,62.36
2023-01-13T02:30:51.338Z,57.20
2023-01-13T02:31:51.377Z,62.84
2023-01-13T02:32:51.311Z,61.87
2023-01-13T02:33:51.310Z,61.55
2023-01-13T02:34:51.328Z,69.29
2023-01-13T02:35:51.303Z,69.13
2023-01-13T02:36:51.292Z,62.36
2023-01-13T02:37:51.276Z,62.36
2023-01-13T02:38:51.268Z,65.26
2023-01-13T02:39:51.255Z,77.18
2023-01-13T02:40:51.263Z,52.05
2023-01-13T02:41:51.255Z,55.59
2023-01-13T02:42:51.233Z,53.98
2023-01-13T02:43:51.236Z,42.38
2023-01-13T02:44:51.233Z,46.89
2023-01-13T02:45:51.246Z,60.59
2023-01-13T02:46:51.217Z,63.16
2023-01-13T02:47:51.209Z,57.04
2023-01-13T02:48:51.196Z,64.29
2023-01-13T02:49:51.215Z,63.97
2023-01-13T02:50:51.283Z,61.55
2023-01-13T02:51:51.181Z,63.00
2023-01-13T02:52:51.160Z,71.87
2023-01-13T02:53:51.143Z,65.42
2023-01-13T02:54:51.148Z,76.86
2023-01-13T02:55:51.135Z,57.52
2023-01-13T02:56:51.137Z,68.64
2023-01-13T02:57:51.122Z,56.40
2023-01-13T02:58:51.112Z,62.84
2023-01-13T02:59:51.115Z,64.45
2023-01-13T03:00:51.119Z,66.55
2023-01-13T03:01:51.359Z,60.59
2023-01-13T03:02:51.161Z,64.78
2023-01-13T03:03:51.931Z,66.87
2023-01-13T03:04:51.082Z,63.49
2023-01-13T03:05:51.062Z,57.85
2023-01-13T03:06:51.071Z,45.76
2023-01-13T03:07:51.043Z,64.61
2023-01-13T03:08:51.928Z,66.87
2023-01-13T03:09:51.941Z,66.87
2023-01-13T03:10:51.029Z,57.69
2023-01-13T03:11:51.933Z,60.42
2023-01-13T03:12:51.010Z,64.78
2023-01-13T03:13:50.999Z,56.07
2023-01-13T03:14:50.984Z,61.39
2023-01-13T03:15:50.978Z,53.33
2023-01-13T03:16:51.154Z,62.04
2023-01-13T03:17:50.971Z,63.65
2023-01-13T03:18:50.957Z,63.16
2023-01-13T03:19:50.948Z,63.65
2023-01-13T03:20:50.950Z,50.27
2023-01-13T03:21:50.926Z,63.00
2023-01-13T03:22:50.924Z,75.25
2023-01-13T03:23:57.430Z,63.97
2023-01-13T03:24:50.902Z,61.23
2023-01-13T03:25:50.892Z,63.16
2023-01-13T03:26:50.896Z,60.59
2023-01-13T03:27:51.519Z,65.26
2023-01-13T03:28:50.873Z,56.07
2023-01-13T03:29:50.875Z,59.62
2023-01-13T03:30:50.924Z,72.35
2023-01-13T03:31:50.851Z,58.65
2023-01-13T03:32:50.847Z,61.71
2023-01-13T03:33:50.852Z,64.13
2023-01-13T03:34:50.824Z,61.87
2023-01-13T03:35:50.816Z,61.55
2023-01-13T03:36:50.817Z,63.16
2023-01-13T03:37:50.802Z,59.14
2023-01-13T03:38:50.799Z,47.86
2023-01-13T03:39:50.778Z,61.39
2023-01-13T03:40:50.771Z,62.20
2023-01-13T03:41:50.772Z,67.19
2023-01-13T03:42:50.755Z,67.19
2023-01-13T03:43:50.812Z,63.33
2023-01-13T03:44:50.741Z,64.45
2023-01-13T03:45:50.784Z,69.61
2023-01-13T03:46:50.725Z,60.75
2023-01-13T03:47:50.717Z,60.26
2023-01-13T03:48:50.756Z,62.68
2023-01-13T03:49:50.702Z,64.94
2023-01-13T03:50:51.703Z,61.23
2023-01-13T03:51:50.687Z,66.39
2023-01-13T03:52:50.673Z,65.90
2023-01-13T03:53:50.679Z,69.13
2023-01-13T03:54:50.668Z,61.23
2023-01-13T03:55:50.681Z,62.52
2023-01-13T03:56:50.678Z,69.45
2023-01-13T03:57:50.657Z,65.42
2023-01-13T03:58:50.630Z,64.45
2023-01-13T03:59:50.618Z,62.68
2023-01-13T04:00:50.622Z,63.81
2023-01-13T04:01:50.732Z,70.58
2023-01-13T04:02:50.600Z,62.68
2023-01-13T04:03:50.650Z,65.42
2023-01-13T04:04:50.582Z,64.45
2023-01-13T04:05:50.598Z,65.26
2023-01-13T04:06:50.565Z,63.65
2023-01-13T04:07:50.564Z,68.96
2023-01-13T04:08:50.545Z,68.00
2023-01-13T04:09:50.567Z,73.64
2023-01-13T04:10:50.544Z,68.00
2023-01-13T04:11:50.527Z,67.68
2023-01-13T04:12:50.508Z,65.42
2023-01-13T04:13:50.558Z,66.39
2023-01-13T04:14:50.499Z,63.16
2023-01-13T04:15:50.537Z,61.87
2023-01-13T04:16:50.483Z,62.68
2023-01-13T04:17:50.483Z,65.74
2023-01-13T04:18:50.473Z,62.84
2023-01-13T04:19:50.489Z,65.90
2023-01-13T04:20:50.455Z,68.16
2023-01-13T04:21:50.450Z,68.48
2023-01-13T04:22:50.449Z,69.93
2023-01-13T04:23:50.453Z,78.47
2023-01-13T04:24:50.423Z,68.32
2023-01-13T04:25:50.410Z,72.19
2023-01-13T04:26:50.409Z,66.39
2023-01-13T04:27:50.404Z,69.29
2023-01-13T04:28:50.427Z,67.19
2023-01-13T04:29:50.946Z,71.70
2023-01-13T04:30:50.487Z,72.51
2023-01-13T04:31:50.376Z,69.77
2023-01-13T04:32:50.366Z,66.87
2023-01-13T04:33:50.360Z,68.96
2023-01-13T04:34:50.341Z,73.32
2023-01-13T04:35:50.332Z,70.58
2023-01-13T04:36:50.365Z,68.64
2023-01-13T04:37:50.312Z,72.03
2023-01-13T04:38:50.307Z,74.28
2023-01-13T04:39:50.314Z,68.96
2023-01-13T04:40:50.291Z,67.68
2023-01-13T04:41:50.288Z,71.87
2023-01-13T04:42:50.287Z,70.09
2023-01-13T04:43:50.265Z,69.77
2023-01-13T04:44:50.263Z,70.25
2023-01-13T04:45:50.248Z,66.71
2023-01-13T04:46:50.250Z,73.48
2023-01-13T04:47:50.954Z,71.70
2023-01-13T04:48:50.234Z,66.23
2023-01-13T04:49:50.222Z,73.48
2023-01-13T04:50:50.208Z,79.28
2023-01-13T04:51:50.203Z,75.89
2023-01-13T04:52:50.200Z,72.19
2023-01-13T04:53:50.187Z,70.90
2023-01-13T04:54:50.180Z,77.02
2023-01-13T04:55:50.185Z,66.39
2023-01-13T04:56:50.178Z,72.51
2023-01-13T04:57:50.164Z,72.83
2023-01-13T04:58:50.145Z,73.32
2023-01-13T04:59:51.137Z,71.22
2023-01-13T05:00:50.135Z,72.99
2023-01-13T05:01:50.271Z,74.93
2023-01-13T05:02:55.026Z,72.51
2023-01-13T05:03:52.018Z,73.48
2023-01-13T05:04:50.223Z,72.19
2023-01-13T05:05:50.095Z,68.16
2023-01-13T05:06:50.099Z,65.74
2023-01-13T05:07:50.086Z,74.44
2023-01-13T05:08:50.063Z,74.77
2023-01-13T05:09:50.089Z,69.29
2023-01-13T05:11:22.980Z,76.54
2023-01-13T05:11:50.038Z,65.74
2023-01-13T05:12:50.047Z,67.03
2023-01-13T05:13:50.533Z,68.80
2023-01-13T05:14:50.031Z,67.84
2023-01-13T05:15:52.000Z,69.45
2023-01-13T05:16:50.023Z,71.38
2023-01-13T05:17:49.995Z,74.28
2023-01-13T05:18:50.976Z,76.86
2023-01-13T05:19:49.981Z,72.35
2023-01-13T05:20:53.475Z,76.05
2023-01-13T05:21:49.960Z,73.15
2023-01-13T05:22:50.495Z,75.09
2023-01-13T05:23:54.564Z,74.77
2023-01-13T05:24:50.488Z,68.80
2023-01-13T05:25:54.954Z,68.80
2023-01-13T05:26:51.477Z,73.80
2023-01-13T05:27:50.917Z,66.55
2023-01-13T05:28:49.934Z,75.09
2023-01-13T05:29:49.887Z,77.50
2023-01-13T05:30:49.947Z,71.54
2023-01-13T05:31:50.501Z,69.45
2023-01-13T05:32:49.860Z,74.44
2023-01-13T05:33:49.854Z,67.84
2023-01-13T05:34:49.850Z,71.54
2023-01-13T05:35:49.899Z,74.44
2023-01-13T05:36:49.827Z,77.02
2023-01-13T05:37:49.820Z,75.09
2023-01-13T05:38:49.814Z,70.74
2023-01-13T05:39:49.810Z,69.61
2023-01-13T05:40:49.823Z,69.13
2023-01-13T05:41:49.794Z,70.25
2023-01-13T05:42:49.786Z,68.32
2023-01-13T05:43:49.774Z,73.32
2023-01-13T05:44:49.775Z,70.42
2023-01-13T05:45:49.755Z,71.70
2023-01-13T05:46:49.868Z,71.22
2023-01-13T05:47:49.736Z,71.22
2023-01-13T05:48:49.735Z,74.93
2023-01-13T05:49:49.726Z,76.38
2023-01-13T05:50:49.718Z,73.96
2023-01-13T05:51:50.524Z,76.70
2023-01-13T05:52:50.561Z,73.32
2023-01-13T05:53:50.491Z,74.93
2023-01-13T05:54:50.743Z,76.22
2023-01-13T05:55:51.493Z,73.64
2023-01-13T05:56:49.704Z,74.93
2023-01-13T05:57:49.669Z,71.70
2023-01-13T05:58:49.657Z,72.19
2023-01-13T05:59:49.645Z,72.83
2023-01-13T06:00:49.651Z,76.70
2023-01-13T06:01:49.654Z,75.09
2023-01-13T06:02:49.659Z,76.22
2023-01-13T06:03:49.641Z,77.50
2023-01-13T06:04:49.608Z,74.28
2023-01-13T06:05:49.598Z,74.12
2023-01-13T06:06:49.590Z,71.70
2023-01-13T06:07:49.605Z,73.15
2023-01-13T06:08:49.581Z,77.34
2023-01-13T06:09:49.572Z,76.22
2023-01-13T06:10:49.570Z,73.48
2023-01-13T06:11:49.556Z,72.99
2023-01-13T06:12:50.494Z,76.38
2023-01-13T06:13:49.558Z,74.60
2023-01-13T06:14:49.545Z,73.80
2023-01-13T06:15:49.552Z,74.77
2023-01-13T06:16:49.529Z,69.61
2023-01-13T06:17:49.508Z,71.54
2023-01-13T06:18:49.516Z,75.41
2023-01-13T06:19:49.496Z,75.89
2023-01-13T06:20:49.501Z,76.70
2023-01-13T06:21:49.482Z,74.28
2023-01-13T06:22:49.491Z,72.83
2023-01-13T06:23:50.990Z,72.99
2023-01-13T06:24:49.500Z,74.60
2023-01-13T06:25:49.459Z,76.54
2023-01-13T06:26:49.444Z,73.48
2023-01-13T06:27:49.440Z,75.41
2023-01-13T06:28:49.433Z,75.89
2023-01-13T06:29:49.427Z,72.99
2023-01-13T06:30:49.409Z,75.09
2023-01-13T06:31:49.456Z,75.57
2023-01-13T06:32:49.391Z,75.57
2023-01-13T06:33:50.073Z,75.25
2023-01-13T06:34:52.150Z,75.09
2023-01-13T06:35:49.379Z,75.09
2023-01-13T06:36:51.065Z,74.60
2023-01-13T06:37:49.377Z,77.67
2023-01-13T06:38:49.364Z,74.77
2023-01-13T06:39:49.341Z,72.99
2023-01-13T06:40:49.334Z,72.51
2023-01-13T06:41:49.335Z,74.77
2023-01-13T06:42:49.322Z,73.64
2023-01-13T06:43:49.369Z,72.51
2023-01-13T06:44:49.315Z,73.80
2023-01-13T06:45:49.298Z,74.12
2023-01-13T06:46:49.369Z,73.80
2023-01-13T06:47:49.274Z,74.77
2023-01-13T06:48:49.297Z,75.25
2023-01-13T06:49:49.278Z,74.77
2023-01-13T06:50:49.257Z,75.73
2023-01-13T06:51:49.254Z,77.83
2023-01-13T06:52:49.239Z,79.60
2023-01-13T06:53:49.233Z,75.41
2023-01-13T06:54:49.233Z,76.05
2023-01-13T06:55:49.214Z,73.15
2023-01-13T06:56:49.219Z,73.80
2023-01-13T06:57:49.191Z,73.80
2023-01-13T06:58:49.188Z,76.22
2023-01-13T06:59:50.626Z,72.51
2023-01-13T07:00:49.199Z,72.51
2023-01-13T07:01:49.390Z,72.03
2023-01-13T07:02:49.210Z,77.34
2023-01-13T07:03:49.145Z,71.70
2023-01-13T07:04:49.163Z,74.93
2023-01-13T07:05:49.133Z,72.03
2023-01-13T07:06:49.136Z,73.48
2023-01-13T07:07:49.135Z,75.89
2023-01-13T07:08:49.098Z,73.15
2023-01-13T07:09:49.116Z,68.32
2023-01-13T07:10:49.102Z,70.42
2023-01-13T07:11:49.094Z,74.60
2023-01-13T07:12:49.074Z,72.03
2023-01-13T07:13:49.070Z,74.93
2023-01-13T07:14:49.591Z,72.99
2023-01-13T07:15:49.058Z,72.83
2023-01-13T07:16:49.082Z,70.58
2023-01-13T07:17:49.575Z,74.28
2023-01-13T07:18:49.020Z,78.31
2023-01-13T07:19:49.035Z,72.51
2023-01-13T07:20:49.078Z,78.96
2023-01-13T07:21:50.585Z,74.93
2023-01-13T07:22:49.001Z,71.38
2023-01-13T07:23:49.015Z,73.80
2023-01-13T07:24:48.985Z,73.80
2023-01-13T07:25:48.967Z,72.67
2023-01-13T07:26:48.979Z,71.38
2023-01-13T07:27:48.948Z,76.86
2023-01-13T07:28:48.949Z,73.32
2023-01-13T07:29:48.937Z,73.64
2023-01-13T07:30:48.925Z,74.60
2023-01-13T07:31:50.069Z,73.64
2023-01-13T07:32:49.917Z,71.54
2023-01-13T07:33:48.911Z,72.67
2023-01-13T07:34:48.900Z,73.32
2023-01-13T07:35:48.880Z,79.60
2023-01-13T07:36:48.883Z,73.96
2023-01-13T07:37:48.876Z,72.19
2023-01-13T07:38:48.866Z,70.58
2023-01-13T07:39:48.842Z,72.51
2023-01-13T07:40:48.845Z,72.35
2023-01-13T07:41:50.584Z,72.35
2023-01-13T07:42:48.823Z,70.90
2023-01-13T07:43:48.840Z,75.25
2023-01-13T07:44:48.809Z,72.35
2023-01-13T07:45:48.858Z,77.67
2023-01-13T07:46:48.791Z,72.35
2023-01-13T07:47:48.784Z,74.28
2023-01-13T07:48:48.784Z,72.83
2023-01-13T07:49:48.762Z,76.38
2023-01-13T07:50:48.759Z,73.32
2023-01-13T07:51:48.757Z,72.51
2023-01-13T07:52:48.753Z,74.77
2023-01-13T07:53:48.742Z,72.19
2023-01-13T07:54:48.744Z,73.96
2023-01-13T07:55:49.515Z,72.99
2023-01-13T07:56:48.720Z,73.80
2023-01-13T07:57:48.700Z,74.77
2023-01-13T07:58:48.729Z,73.48
2023-01-13T07:59:48.712Z,71.06
2023-01-13T08:00:48.713Z,72.83
2023-01-13T08:01:48.801Z,73.15
2023-01-13T08:02:48.684Z,73.80
2023-01-13T08:03:48.655Z,78.47
2023-01-13T08:04:48.731Z,74.93
2023-01-13T08:05:48.641Z,69.45
2023-01-13T08:06:48.635Z,73.48
2023-01-13T08:07:48.636Z,72.51
2023-01-13T08:08:48.613Z,70.42
2023-01-13T08:09:48.619Z,69.61
2023-01-13T08:10:48.685Z,71.54
2023-01-13T08:11:48.589Z,70.58
2023-01-13T08:12:54.537Z,73.80
2023-01-13T08:13:49.583Z,73.32
2023-01-13T08:14:48.579Z,70.25
2023-01-13T08:15:48.568Z,79.60
2023-01-13T08:16:48.558Z,69.77
2023-01-13T08:17:48.534Z,72.51
2023-01-13T08:18:48.526Z,78.96
2023-01-13T08:19:48.530Z,72.83
2023-01-13T08:20:48.528Z,75.41
2023-01-13T08:21:48.514Z,73.32
2023-01-13T08:22:48.543Z,71.22
2023-01-13T08:23:48.498Z,73.96
2023-01-13T08:24:48.494Z,71.06
2023-01-13T08:25:48.487Z,74.77
2023-01-13T08:26:48.507Z,74.44
2023-01-13T08:27:48.464Z,71.22
2023-01-13T08:28:48.450Z,82.18
2023-01-13T08:29:48.445Z,73.32
2023-01-13T08:30:48.485Z,74.28
2023-01-13T08:31:48.424Z,74.12
2023-01-13T08:32:48.424Z,71.06
2023-01-13T08:33:48.418Z,75.89
2023-01-13T08:34:48.438Z,72.03
2023-01-13T08:35:48.403Z,72.83
2023-01-13T08:36:48.398Z,76.05
2023-01-13T08:37:48.387Z,71.87
2023-01-13T08:38:48.370Z,71.06
2023-01-13T08:39:48.368Z,72.51
2023-01-13T08:40:48.365Z,72.35
2023-01-13T08:41:48.348Z,72.67
2023-01-13T08:42:48.836Z,89.11
2023-01-13T08:43:49.329Z,71.38
2023-01-13T08:44:48.364Z,70.74
2023-01-13T08:45:48.388Z,68.16
2023-01-13T08:46:48.313Z,72.03
2023-01-13T08:47:48.318Z,71.22
2023-01-13T08:48:48.327Z,70.90
2023-01-13T08:49:48.287Z,70.58
2023-01-13T08:50:50.018Z,71.06
2023-01-13T08:51:48.615Z,71.54
2023-01-13T08:52:48.270Z,69.93
2023-01-13T08:53:48.261Z,73.32
2023-01-13T08:54:48.247Z,73.96
2023-01-13T08:55:48.240Z,73.15
2023-01-13T08:56:48.285Z,72.19
2023-01-13T08:57:48.216Z,73.64
2023-01-13T08:58:48.220Z,71.54
2023-01-13T08:59:48.196Z,73.15
2023-01-13T09:00:48.232Z,70.42
2023-01-13T09:01:48.334Z,72.51
2023-01-13T09:02:48.175Z,72.35
2023-01-13T09:03:48.170Z,75.41
2023-01-13T09:04:48.266Z,72.99
2023-01-13T09:05:48.169Z,71.06
2023-01-13T09:06:48.149Z,71.38
2023-01-13T09:07:48.148Z,67.84
2023-01-13T09:08:48.138Z,68.00
2023-01-13T09:09:48.128Z,72.51
2023-01-13T09:10:48.113Z,70.42
2023-01-13T09:11:48.121Z,67.68
2023-01-13T09:12:48.111Z,69.93
2023-01-13T09:13:48.105Z,69.77
2023-01-13T09:14:48.105Z,70.25
2023-01-13T09:15:48.106Z,70.09
2023-01-13T09:16:48.074Z,69.61
2023-01-13T09:17:48.058Z,70.25
2023-01-13T09:18:49.617Z,72.35
2023-01-13T09:19:48.040Z,72.99
2023-01-13T09:20:48.038Z,73.48
2023-01-13T09:21:48.063Z,72.51
2023-01-13T09:22:48.029Z,75.41
2023-01-13T09:23:48.015Z,71.70
2023-01-13T09:24:48.001Z,67.03
2023-01-13T09:25:48.000Z,69.93
2023-01-13T09:26:47.991Z,71.54
2023-01-13T09:27:47.988Z,73.32
2023-01-13T09:28:47.973Z,70.74
2023-01-13T09:29:48.524Z,71.06
2023-01-13T09:30:48.600Z,70.90
2023-01-13T09:31:47.948Z,71.22
2023-01-13T09:32:47.959Z,70.25
2023-01-13T09:33:47.930Z,69.77
2023-01-13T09:34:47.932Z,71.38
2023-01-13T09:35:47.932Z,76.54
2023-01-13T09:36:48.528Z,72.03
2023-01-13T09:37:47.910Z,72.51
2023-01-13T09:38:47.889Z,74.28
2023-01-13T09:39:47.915Z,74.60
2023-01-13T09:40:47.888Z,68.96
2023-01-13T09:41:47.878Z,72.51
2023-01-13T09:42:47.857Z,70.25
2023-01-13T09:43:47.864Z,71.06
2023-01-13T09:44:47.854Z,76.05
2023-01-13T09:45:47.856Z,70.90
2023-01-13T09:46:47.863Z,70.42
2023-01-13T09:47:47.829Z,70.42
2023-01-13T09:48:47.807Z,76.70
2023-01-13T09:49:47.848Z,86.21
2023-01-13T09:50:47.814Z,73.48
2023-01-13T09:51:47.804Z,72.35
2023-01-13T09:52:47.796Z,71.87
2023-01-13T09:53:47.781Z,70.74
2023-01-13T09:54:47.859Z,71.22
2023-01-13T09:55:47.753Z,71.22
2023-01-13T09:56:47.774Z,70.42
2023-01-13T09:57:47.741Z,70.74
2023-01-13T09:58:47.773Z,68.80
2023-01-13T09:59:47.744Z,71.06
2023-01-13T10:00:47.723Z,72.19
2023-01-13T10:01:47.709Z,70.74
2023-01-13T10:02:47.741Z,72.83
2023-01-13T10:03:50.579Z,71.22
2023-01-13T10:04:47.771Z,72.67
2023-01-13T10:05:47.683Z,72.35
2023-01-13T10:06:47.670Z,68.96
2023-01-13T10:07:48.891Z,69.93
2023-01-13T10:08:50.638Z,70.74
2023-01-13T10:09:49.553Z,68.64
2023-01-13T10:10:47.639Z,69.61
2023-01-13T10:11:47.639Z,71.54
2023-01-13T10:12:47.616Z,70.58
2023-01-13T10:13:47.619Z,69.93
2023-01-13T10:14:47.638Z,70.09
2023-01-13T10:15:47.628Z,70.58
2023-01-13T10:16:47.588Z,73.32
2023-01-13T10:17:47.576Z,74.12
2023-01-13T10:18:47.570Z,73.64
2023-01-13T10:19:47.581Z,72.99
2023-01-13T10:20:47.554Z,71.70
2023-01-13T10:21:47.560Z,70.90
2023-01-13T10:22:47.531Z,78.31
2023-01-13T10:23:47.532Z,72.19
2023-01-13T10:24:47.531Z,69.61
2023-01-13T10:25:47.548Z,70.25
2023-01-13T10:26:47.640Z,73.80
2023-01-13T10:27:47.507Z,70.25
2023-01-13T10:28:47.507Z,71.54
2023-01-13T10:29:47.471Z,72.67
2023-01-13T10:30:47.481Z,71.22
2023-01-13T10:31:48.047Z,70.25
2023-01-13T10:32:48.121Z,73.15
2023-01-13T10:33:47.458Z,69.61
2023-01-13T10:34:47.480Z,74.28
2023-01-13T10:35:47.442Z,72.99
2023-01-13T10:36:47.511Z,75.25
2023-01-13T10:37:47.417Z,70.58
2023-01-13T10:38:47.413Z,76.05
2023-01-13T10:39:47.409Z,74.77
2023-01-13T10:40:47.395Z,70.74
2023-01-13T10:41:47.399Z,70.90
2023-01-13T10:42:47.390Z,69.77
2023-01-13T10:43:47.366Z,69.93
2023-01-13T10:44:47.371Z,71.22
2023-01-13T10:45:47.350Z,69.45
2023-01-13T10:46:47.404Z,69.77
2023-01-13T10:47:48.050Z,70.58
2023-01-13T10:48:47.332Z,72.83
2023-01-13T10:49:48.153Z,69.61
2023-01-13T10:50:47.316Z,71.54
2023-01-13T10:51:47.307Z,72.83
2023-01-13T10:52:48.008Z,71.06
2023-01-13T10:53:47.291Z,76.05
2023-01-13T10:54:47.307Z,73.15
2023-01-13T10:55:49.527Z,71.70
2023-01-13T10:56:47.326Z,71.87
2023-01-13T10:57:47.272Z,71.06
2023-01-13T10:58:47.250Z,70.90
2023-01-13T10:59:47.236Z,70.09
2023-01-13T11:00:47.255Z,73.32
2023-01-13T11:01:47.317Z,72.03
2023-01-13T11:02:47.438Z,73.80
2023-01-13T11:03:47.217Z,71.06
2023-01-13T11:04:47.262Z,77.18
2023-01-13T11:05:47.232Z,70.74
2023-01-13T11:06:48.066Z,74.44
2023-01-13T11:07:47.205Z,74.93
2023-01-13T11:08:47.189Z,74.44
2023-01-13T11:09:47.177Z,76.86
2023-01-13T11:10:47.152Z,76.86
2023-01-13T11:11:47.170Z,75.41
2023-01-13T11:12:47.229Z,70.74
2023-01-13T11:13:47.137Z,70.25
2023-01-13T11:14:48.075Z,69.93
2023-01-13T11:15:47.145Z,75.57
2023-01-13T11:16:53.142Z,71.06
2023-01-13T11:17:49.103Z,75.89
2023-01-13T11:18:47.088Z,75.09
2023-01-13T11:19:47.090Z,74.44
2023-01-13T11:20:47.074Z,72.51
2023-01-13T11:21:47.075Z,74.60
2023-01-13T11:22:47.068Z,75.09
2023-01-13T11:23:47.059Z,72.19
2023-01-13T11:24:48.901Z,70.42
2023-01-13T11:25:47.027Z,72.51
2023-01-13T11:26:47.020Z,73.15
2023-01-13T11:27:47.021Z,73.80
2023-01-13T11:28:47.014Z,72.03
2023-01-13T11:29:47.036Z,70.90
2023-01-13T11:30:47.770Z,72.35
2023-01-13T11:31:47.007Z,71.54
2023-01-13T11:32:46.985Z,72.51
2023-01-13T11:33:46.984Z,70.74
2023-01-13T11:34:46.977Z,71.54
2023-01-13T11:35:47.943Z,73.15
2023-01-13T11:36:46.957Z,71.54
2023-01-13T11:37:46.934Z,69.93
2023-01-13T11:38:46.962Z,71.06
2023-01-13T11:39:46.914Z,72.67
2023-01-13T11:40:46.916Z,69.77
2023-01-13T11:41:46.908Z,79.44
2023-01-13T11:42:46.913Z,72.67
2023-01-13T11:43:46.910Z,72.35
2023-01-13T11:44:46.875Z,71.54
2023-01-13T11:45:46.900Z,77.50
2023-01-13T11:46:46.964Z,71.70
2023-01-13T11:49:34.466Z,68.64
2023-01-13T11:50:36.164Z,78.79
2023-01-13T11:51:35.515Z,74.12
2023-01-13T11:52:35.496Z,69.61
2023-01-13T11:53:35.502Z,69.61
2023-01-13T11:54:35.493Z,72.35
2023-01-13T11:55:35.489Z,72.19
2023-01-13T11:56:35.474Z,72.67
2023-01-13T11:57:35.474Z,73.64
2023-01-13T11:58:45.600Z,71.22
2023-01-13T11:59:37.444Z,71.38
2023-01-13T12:00:35.474Z,70.58
2023-01-13T12:01:36.130Z,70.74
2023-01-13T12:02:35.426Z,76.54
2023-01-13T12:03:36.225Z,77.02
2023-01-13T12:04:35.423Z,71.22
2023-01-13T12:05:35.409Z,69.77
2023-01-13T12:06:35.416Z,68.96
2023-01-13T12:07:35.382Z,68.32
2023-01-13T12:08:35.399Z,70.74
2023-01-13T12:09:35.376Z,70.58
2023-01-13T12:10:35.392Z,77.34
2023-01-13T12:11:35.349Z,70.09
2023-01-13T12:12:35.336Z,69.77
2023-01-13T12:13:35.335Z,70.09
2023-01-13T12:14:36.189Z,71.22
2023-01-13T12:15:35.323Z,72.19
2023-01-13T12:16:36.286Z,68.48
2023-01-13T12:17:44.962Z,73.32
2023-01-13T12:18:35.292Z,72.35
2023-01-13T12:19:35.281Z,72.19
2023-01-13T12:20:35.275Z,73.15
2023-01-13T12:21:35.273Z,76.22
2023-01-13T12:22:36.833Z,72.51
2023-01-13T12:23:36.255Z,73.80
2023-01-13T12:24:35.267Z,72.35
2023-01-13T12:25:36.210Z,75.89
2023-01-13T12:26:35.251Z,70.25
2023-01-13T12:27:35.221Z,68.32
2023-01-13T12:28:35.267Z,70.09
2023-01-13T12:29:35.213Z,73.64
2023-01-13T12:30:35.201Z,70.42
2023-01-13T12:31:35.372Z,70.09
2023-01-13T12:32:36.712Z,69.61
2023-01-13T12:33:35.177Z,70.25
2023-01-13T12:34:35.249Z,68.80
2023-01-13T12:35:35.172Z,69.93
2023-01-13T12:36:35.161Z,69.29
2023-01-13T12:37:35.710Z,68.96
2023-01-13T12:38:35.127Z,70.74
2023-01-13T12:39:36.713Z,71.70
2023-01-13T12:40:35.117Z,69.61
2023-01-13T12:41:35.105Z,73.15
2023-01-13T12:42:35.114Z,73.15
2023-01-13T12:43:35.091Z,74.12
2023-01-13T12:44:35.082Z,69.29
2023-01-13T12:45:35.105Z,68.96
2023-01-13T12:46:35.076Z,66.39
2023-01-13T12:47:35.052Z,69.93
2023-01-13T12:48:35.049Z,69.77
2023-01-13T12:49:35.046Z,68.16
2023-01-13T12:50:35.029Z,73.64
2023-01-13T12:51:35.026Z,68.96
2023-01-13T12:52:35.017Z,71.54
2023-01-13T12:53:35.007Z,72.83
2023-01-13T12:54:35.038Z,72.19
2023-01-13T12:55:35.148Z,70.42
2023-01-13T12:56:36.502Z,70.42
2023-01-13T12:57:36.640Z,67.03
2023-01-13T12:58:34.967Z,67.68
2023-01-13T12:59:34.962Z,67.84
2023-01-13T13:00:34.950Z,72.67
2023-01-13T13:01:35.063Z,69.93
2023-01-13T13:02:34.947Z,74.12
2023-01-13T13:03:34.931Z,77.67
2023-01-13T13:04:38.650Z,72.51
2023-01-13T13:05:35.686Z,70.42
2023-01-13T13:06:35.919Z,70.42
2023-01-13T13:07:34.892Z,72.03
2023-01-13T13:08:35.744Z,71.06
2023-01-13T13:09:34.870Z,78.96
2023-01-13T13:10:36.646Z,67.84
2023-01-13T13:11:34.856Z,71.22
2023-01-13T13:12:34.843Z,69.45
2023-01-13T13:13:34.851Z,69.61
2023-01-13T13:14:34.916Z,68.80
2023-01-13T13:15:34.821Z,70.58
2023-01-13T13:16:34.845Z,68.16
2023-01-13T13:17:34.801Z,74.12
2023-01-13T13:18:34.787Z,71.22
2023-01-13T13:19:34.785Z,76.54
2023-01-13T13:20:35.218Z,70.74
2023-01-13T13:21:34.775Z,75.73